Berthold, North Dakota
Current Conditions -  °F | °C
As of 4:58 AM on Friday 31 Oct 2014 (Local Time) from KMIB Reporting Station
Clear Clear  
Wind Chill:   Ceiling: Unl
Heat Index: 18°   Visibility: 10mi
Dew Point: 16°   Wind: 10mph
Humidity: 93%   Direction: 150°SSE
Pressure: 30.5"   Gusts: NA
Location:  48.31°N, 101.74°W
Report Text: KMIB 310958Z AUTO 15009KT 10SM CLR M08/M09 A3050 RMK AO2 SLP362 T10791088 $
Loading
Personal Weather Stations






























Interactive Weather Map
Tropical Storm Tracking
New forecast layout! Learn more

10-Day Weather Forecast

Advertisements
Track Severe Weather on mobile